sensor_id;sensor_type;location;lat;lon;timestamp;temperature;humidity
23731;DHT22;12046;44.702;10.622;2023-04-25T00:02:03;14.70;99.90
23731;DHT22;12046;44.702;10.622;2023-04-25T00:04:29;14.70;99.90
23731;DHT22;12046;44.702;10.622;2023-04-25T00:06:59;14.70;99.90
23731;DHT22;12046;44.702;10.622;2023-04-25T00:09:28;14.70;99.90
23731;DHT22;12046;44.702;10.622;2023-04-25T00:11:54;14.70;99.90
23731;DHT22;12046;44.702;10.622;2023-04-25T00:14:20;14.70;99.90
23731;DHT22;12046;44.702;10.622;2023-04-25T00:16:46;14.70;99.90
23731;DHT22;12046;44.702;10.622;2023-04-25T00:19:11;14.70;99.90
23731;DHT22;12046;44.702;10.622;2023-04-25T00:21:39;14.70;99.90
23731;DHT22;12046;44.702;10.622;2023-04-25T00:24:06;14.70;99.90
23731;DHT22;12046;44.702;10.622;2023-04-25T00:26:34;14.60;99.90
23731;DHT22;12046;44.702;10.622;2023-04-25T00:29:00;14.60;99.90
23731;DHT22;12046;44.702;10.622;2023-04-25T00:31:26;14.60;99.90
23731;DHT22;12046;44.702;10.622;2023-04-25T00:33:52;14.50;99.90
23731;DHT22;12046;44.702;10.622;2023-04-25T00:36:18;14.50;99.90
23731;DHT22;12046;44.702;10.622;2023-04-25T00:38:44;14.50;99.90
23731;DHT22;12046;44.702;10.622;2023-04-25T00:41:10;14.40;99.90
23731;DHT22;12046;44.702;10.622;2023-04-25T00:43:36;14.40;99.90
23731;DHT22;12046;44.702;10.622;2023-04-25T00:46:03;14.40;99.90
23731;DHT22;12046;44.702;10.622;2023-04-25T00:48:29;14.40;99.90
23731;DHT22;12046;44.702;10.622;2023-04-25T00:50:57;14.40;99.90
23731;DHT22;12046;44.702;10.622;2023-04-25T00:53:25;14.40;99.90
23731;DHT22;12046;44.702;10.622;2023-04-25T00:55:51;14.30;99.90
23731;DHT22;12046;44.702;10.622;2023-04-25T00:58:18;14.30;99.90
23731;DHT22;12046;44.702;10.622;2023-04-25T01:00:46;14.30;99.90
23731;DHT22;12046;44.702;10.622;2023-04-25T01:03:13;14.30;99.90
23731;DHT22;12046;44.702;10.622;2023-04-25T01:05:41;14.30;99.90
23731;DHT22;12046;44.702;10.622;2023-04-25T01:08:07;14.20;99.90
23731;DHT22;12046;44.702;10.622;2023-04-25T01:10:33;14.20;99.90
23731;DHT22;12046;44.702;10.622;2023-04-25T01:13:00;14.20;99.90
23731;DHT22;12046;44.702;10.622;2023-04-25T01:15:26;14.20;99.90
23731;DHT22;12046;44.702;10.622;2023-04-25T01:17:51;14.20;99.90
23731;DHT22;12046;44.702;10.622;2023-04-25T01:20:21;14.20;99.90
23731;DHT22;12046;44.702;10.622;2023-04-25T01:22:49;14.20;99.90
23731;DHT22;12046;44.702;10.622;2023-04-25T01:25:16;14.20;99.90
23731;DHT22;12046;44.702;10.622;2023-04-25T01:27:42;14.10;99.90
23731;DHT22;12046;44.702;10.622;2023-04-25T01:30:08;14.10;99.90
23731;DHT22;12046;44.702;10.622;2023-04-25T01:32:34;14.10;99.90
23731;DHT22;12046;44.702;10.622;2023-04-25T01:35:09;14.10;99.90
23731;DHT22;12046;44.702;10.622;2023-04-25T01:37:39;14.00;99.90
23731;DHT22;12046;44.702;10.622;2023-04-25T01:40:07;14.00;99.90
23731;DHT22;12046;44.702;10.622;2023-04-25T01:42:33;13.90;99.90
23731;DHT22;12046;44.702;10.622;2023-04-25T01:45:00;13.90;99.90
23731;DHT22;12046;44.702;10.622;2023-04-25T01:47:26;13.90;99.90
23731;DHT22;12046;44.702;10.622;2023-04-25T01:49:52;13.90;99.90
23731;DHT22;12046;44.702;10.622;2023-04-25T01:52:17;13.80;99.90
23731;DHT22;12046;44.702;10.622;2023-04-25T01:54:43;13.60;99.90
23731;DHT22;12046;44.702;10.622;2023-04-25T01:57:13;13.60;99.90
23731;DHT22;12046;44.702;10.622;2023-04-25T01:59:39;13.50;99.90
23731;DHT22;12046;44.702;10.622;2023-04-25T02:02:05;13.50;99.90
23731;DHT22;12046;44.702;10.622;2023-04-25T02:04:31;13.40;99.90
23731;DHT22;12046;44.702;10.622;2023-04-25T02:06:57;13.30;99.90
23731;DHT22;12046;44.702;10.622;2023-04-25T02:09:23;13.30;99.90
23731;DHT22;12046;44.702;10.622;2023-04-25T02:11:49;13.20;99.90
23731;DHT22;12046;44.702;10.622;2023-04-25T02:14:15;13.10;99.90
23731;DHT22;12046;44.702;10.622;2023-04-25T02:16:40;13.10;99.90
23731;DHT22;12046;44.702;10.622;2023-04-25T02:19:06;13.00;99.90
23731;DHT22;12046;44.702;10.622;2023-04-25T02:21:32;12.90;99.90
23731;DHT22;12046;44.702;10.622;2023-04-25T02:24:01;12.80;99.90
23731;DHT22;12046;44.702;10.622;2023-04-25T02:26:27;12.80;99.90
23731;DHT22;12046;44.702;10.622;2023-04-25T02:28:52;12.70;99.90
23731;DHT22;12046;44.702;10.622;2023-04-25T02:31:18;12.70;99.90
23731;DHT22;12046;44.702;10.622;2023-04-25T02:33:44;12.60;99.90
23731;DHT22;12046;44.702;10.622;2023-04-25T02:36:10;12.60;99.90
23731;DHT22;12046;44.702;10.622;2023-04-25T02:38:36;12.60;99.90
23731;DHT22;12046;44.702;10.622;2023-04-25T02:41:01;12.50;99.90
23731;DHT22;12046;44.702;10.622;2023-04-25T02:43:27;12.60;99.90
23731;DHT22;12046;44.702;10.622;2023-04-25T02:45:53;12.50;99.90
23731;DHT22;12046;44.702;10.622;2023-04-25T02:48:19;12.40;99.90
23731;DHT22;12046;44.702;10.622;2023-04-25T02:50:45;12.40;99.90
23731;DHT22;12046;44.702;10.622;2023-04-25T02:53:11;12.40;99.90
23731;DHT22;12046;44.702;10.622;2023-04-25T02:55:37;12.30;99.90
23731;DHT22;12046;44.702;10.622;2023-04-25T02:58:04;12.30;99.90
23731;DHT22;12046;44.702;10.622;2023-04-25T03:00:30;12.30;99.90
23731;DHT22;12046;44.702;10.622;2023-04-25T03:02:55;12.20;99.90
23731;DHT22;12046;44.702;10.622;2023-04-25T03:05:21;12.20;99.90
23731;DHT22;12046;44.702;10.622;2023-04-25T03:07:47;12.10;99.90
23731;DHT22;12046;44.702;10.622;2023-04-25T03:10:13;12.10;99.90
23731;DHT22;12046;44.702;10.622;2023-04-25T03:12:38;12.10;99.90
23731;DHT22;12046;44.702;10.622;2023-04-25T03:15:05;12.00;99.90
23731;DHT22;12046;44.702;10.622;2023-04-25T03:17:31;12.10;99.90
23731;DHT22;12046;44.702;10.622;2023-04-25T03:19:57;12.10;99.90
23731;DHT22;12046;44.702;10.622;2023-04-25T03:22:23;12.00;99.90
23731;DHT22;12046;44.702;10.622;2023-04-25T03:24:49;12.00;99.90
23731;DHT22;12046;44.702;10.622;2023-04-25T03:27:16;12.00;99.90
23731;DHT22;12046;44.702;10.622;2023-04-25T03:29:42;12.00;99.90
23731;DHT22;12046;44.702;10.622;2023-04-25T03:32:07;11.90;99.90
23731;DHT22;12046;44.702;10.622;2023-04-25T03:34:33;11.80;99.90
23731;DHT22;12046;44.702;10.622;2023-04-25T03:36:59;11.80;99.90
23731;DHT22;12046;44.702;10.622;2023-04-25T03:39:25;11.70;99.90
23731;DHT22;12046;44.702;10.622;2023-04-25T03:41:51;11.70;99.90
23731;DHT22;12046;44.702;10.622;2023-04-25T03:44:17;11.50;99.90
23731;DHT22;12046;44.702;10.622;2023-04-25T03:46:42;11.50;99.90
23731;DHT22;12046;44.702;10.622;2023-04-25T03:49:08;11.40;99.90
23731;DHT22;12046;44.702;10.622;2023-04-25T03:51:34;11.30;99.90
23731;DHT22;12046;44.702;10.622;2023-04-25T03:54:00;11.30;99.90
23731;DHT22;12046;44.702;10.622;2023-04-25T03:56:26;11.30;99.90
23731;DHT22;12046;44.702;10.622;2023-04-25T03:58:52;11.30;99.90
23731;DHT22;12046;44.702;10.622;2023-04-25T04:01:17;11.30;99.90
23731;DHT22;12046;44.702;10.622;2023-04-25T04:03:43;11.20;99.90
23731;DHT22;12046;44.702;10.622;2023-04-25T04:06:09;11.20;99.90
23731;DHT22;12046;44.702;10.622;2023-04-25T04:08:36;11.20;99.90
23731;DHT22;12046;44.702;10.622;2023-04-25T04:11:02;11.10;99.90
23731;DHT22;12046;44.702;10.622;2023-04-25T04:13:28;11.10;99.90
23731;DHT22;12046;44.702;10.622;2023-04-25T04:15:54;11.10;99.90
23731;DHT22;12046;44.702;10.622;2023-04-25T04:18:21;11.00;99.90
23731;DHT22;12046;44.702;10.622;2023-04-25T04:20:47;11.00;99.90
23731;DHT22;12046;44.702;10.622;2023-04-25T04:23:13;11.00;99.90
23731;DHT22;12046;44.702;10.622;2023-04-25T04:25:39;11.10;99.90
23731;DHT22;12046;44.702;10.622;2023-04-25T04:28:06;11.10;99.90
23731;DHT22;12046;44.702;10.622;2023-04-25T04:30:32;11.10;99.90
23731;DHT22;12046;44.702;10.622;2023-04-25T04:33:02;11.20;99.90
23731;DHT22;12046;44.702;10.622;2023-04-25T04:35:29;11.30;99.90
23731;DHT22;12046;44.702;10.622;2023-04-25T04:37:54;11.30;99.90
23731;DHT22;12046;44.702;10.622;2023-04-25T04:40:20;11.40;99.90
23731;DHT22;12046;44.702;10.622;2023-04-25T04:42:47;11.50;99.90
23731;DHT22;12046;44.702;10.622;2023-04-25T04:45:13;11.60;99.90
23731;DHT22;12046;44.702;10.622;2023-04-25T04:47:40;11.60;99.90
23731;DHT22;12046;44.702;10.622;2023-04-25T04:50:07;11.60;99.90
23731;DHT22;12046;44.702;10.622;2023-04-25T04:52:38;11.70;99.90
23731;DHT22;12046;44.702;10.622;2023-04-25T04:55:05;11.70;99.90
23731;DHT22;12046;44.702;10.622;2023-04-25T04:57:31;11.70;99.90
23731;DHT22;12046;44.702;10.622;2023-04-25T04:59:59;11.80;99.90
23731;DHT22;12046;44.702;10.622;2023-04-25T05:02:25;11.80;99.90
23731;DHT22;12046;44.702;10.622;2023-04-25T05:04:51;11.80;99.90
23731;DHT22;12046;44.702;10.622;2023-04-25T05:07:17;11.80;99.90
23731;DHT22;12046;44.702;10.622;2023-04-25T05:09:43;11.80;99.90
23731;DHT22;12046;44.702;10.622;2023-04-25T05:12:09;11.70;99.90
23731;DHT22;12046;44.702;10.622;2023-04-25T05:14:35;11.70;99.90
23731;DHT22;12046;44.702;10.622;2023-04-25T05:17:01;11.70;99.90
23731;DHT22;12046;44.702;10.622;2023-04-25T05:19:29;11.60;99.90
23731;DHT22;12046;44.702;10.622;2023-04-25T05:21:55;11.60;99.90
23731;DHT22;12046;44.702;10.622;2023-04-25T05:24:20;11.60;99.90
23731;DHT22;12046;44.702;10.622;2023-04-25T05:26:46;11.60;99.90
23731;DHT22;12046;44.702;10.622;2023-04-25T05:29:12;11.60;99.90
23731;DHT22;12046;44.702;10.622;2023-04-25T05:31:37;11.70;99.90
23731;DHT22;12046;44.702;10.622;2023-04-25T05:34:03;11.60;99.90
23731;DHT22;12046;44.702;10.622;2023-04-25T05:36:29;11.70;99.90
23731;DHT22;12046;44.702;10.622;2023-04-25T05:38:56;11.70;99.90
23731;DHT22;12046;44.702;10.622;2023-04-25T05:41:22;11.80;99.90
23731;DHT22;12046;44.702;10.622;2023-04-25T05:43:47;11.80;99.90
23731;DHT22;12046;44.702;10.622;2023-04-25T05:46:15;11.80;99.90
23731;DHT22;12046;44.702;10.622;2023-04-25T05:48:44;11.90;99.90
23731;DHT22;12046;44.702;10.622;2023-04-25T05:51:09;11.80;99.90
23731;DHT22;12046;44.702;10.622;2023-04-25T05:53:35;11.80;99.90
23731;DHT22;12046;44.702;10.622;2023-04-25T05:56:01;11.90;99.90
23731;DHT22;12046;44.702;10.622;2023-04-25T05:58:27;11.90;99.90
23731;DHT22;12046;44.702;10.622;2023-04-25T06:00:53;11.90;99.90
23731;DHT22;12046;44.702;10.622;2023-04-25T06:03:18;12.00;99.90
23731;DHT22;12046;44.702;10.622;2023-04-25T06:05:44;12.00;99.90
23731;DHT22;12046;44.702;10.622;2023-04-25T06:08:10;12.00;99.90
23731;DHT22;12046;44.702;10.622;2023-04-25T06:10:36;12.10;99.90
23731;DHT22;12046;44.702;10.622;2023-04-25T06:13:03;12.10;99.90
23731;DHT22;12046;44.702;10.622;2023-04-25T06:15:29;12.10;99.90
23731;DHT22;12046;44.702;10.622;2023-04-25T06:17:55;12.10;99.90
23731;DHT22;12046;44.702;10.622;2023-04-25T06:20:21;12.20;99.90
23731;DHT22;12046;44.702;10.622;2023-04-25T06:25:24;12.20;99.90
23731;DHT22;12046;44.702;10.622;2023-04-25T06:27:50;12.20;99.90
23731;DHT22;12046;44.702;10.622;2023-04-25T06:30:16;12.20;99.90
23731;DHT22;12046;44.702;10.622;2023-04-25T06:32:43;12.30;99.90
23731;DHT22;12046;44.702;10.622;2023-04-25T06:35:09;12.30;99.90
23731;DHT22;12046;44.702;10.622;2023-04-25T06:37:35;12.40;99.90
23731;DHT22;12046;44.702;10.622;2023-04-25T06:40:01;12.40;99.90
23731;DHT22;12046;44.702;10.622;2023-04-25T06:42:27;12.50;99.90
23731;DHT22;12046;44.702;10.622;2023-04-25T06:44:56;12.50;99.90
23731;DHT22;12046;44.702;10.622;2023-04-25T06:47:22;12.60;99.90
23731;DHT22;12046;44.702;10.622;2023-04-25T06:49:48;12.70;99.90
23731;DHT22;12046;44.702;10.622;2023-04-25T06:52:13;12.70;99.90
23731;DHT22;12046;44.702;10.622;2023-04-25T06:54:39;12.80;99.90
23731;DHT22;12046;44.702;10.622;2023-04-25T06:57:05;12.90;99.90
23731;DHT22;12046;44.702;10.622;2023-04-25T06:59:31;13.00;99.90
23731;DHT22;12046;44.702;10.622;2023-04-25T07:01:56;13.00;99.90
23731;DHT22;12046;44.702;10.622;2023-04-25T07:04:22;13.10;99.90
23731;DHT22;12046;44.702;10.622;2023-04-25T07:06:48;13.10;99.90
23731;DHT22;12046;44.702;10.622;2023-04-25T07:09:14;13.20;99.90
23731;DHT22;12046;44.702;10.622;2023-04-25T07:11:40;13.20;99.90
23731;DHT22;12046;44.702;10.622;2023-04-25T07:14:06;13.20;99.90
23731;DHT22;12046;44.702;10.622;2023-04-25T07:16:32;13.30;99.90
23731;DHT22;12046;44.702;10.622;2023-04-25T07:18:58;13.30;99.90
23731;DHT22;12046;44.702;10.622;2023-04-25T07:21:25;13.30;99.90
23731;DHT22;12046;44.702;10.622;2023-04-25T07:23:51;13.30;99.90
23731;DHT22;12046;44.702;10.622;2023-04-25T07:26:17;13.30;99.90
23731;DHT22;12046;44.702;10.622;2023-04-25T07:28:42;13.20;99.90
23731;DHT22;12046;44.702;10.622;2023-04-25T07:31:08;13.20;99.90
23731;DHT22;12046;44.702;10.622;2023-04-25T07:33:35;13.10;99.90
23731;DHT22;12046;44.702;10.622;2023-04-25T07:36:00;13.10;99.90
23731;DHT22;12046;44.702;10.622;2023-04-25T07:38:26;13.10;99.90
23731;DHT22;12046;44.702;10.622;2023-04-25T07:40:52;13.10;99.90
23731;DHT22;12046;44.702;10.622;2023-04-25T07:43:18;13.10;99.90
23731;DHT22;12046;44.702;10.622;2023-04-25T07:45:45;13.10;99.90
23731;DHT22;12046;44.702;10.622;2023-04-25T07:48:11;13.00;99.90
23731;DHT22;12046;44.702;10.622;2023-04-25T07:50:37;13.10;99.90
23731;DHT22;12046;44.702;10.622;2023-04-25T07:53:02;13.10;99.90
23731;DHT22;12046;44.702;10.622;2023-04-25T07:55:28;13.20;99.90
23731;DHT22;12046;44.702;10.622;2023-04-25T07:57:54;13.20;99.90
23731;DHT22;12046;44.702;10.622;2023-04-25T08:00:20;13.30;99.90
23731;DHT22;12046;44.702;10.622;2023-04-25T08:02:46;13.40;99.90
23731;DHT22;12046;44.702;10.622;2023-04-25T08:05:11;13.50;99.90
23731;DHT22;12046;44.702;10.622;2023-04-25T08:07:40;13.70;99.90
23731;DHT22;12046;44.702;10.622;2023-04-25T08:10:07;13.80;99.90
23731;DHT22;12046;44.702;10.622;2023-04-25T08:12:33;13.90;99.90
23731;DHT22;12046;44.702;10.622;2023-04-25T08:14:59;14.00;99.90
23731;DHT22;12046;44.702;10.622;2023-04-25T08:17:25;14.10;99.90
23731;DHT22;12046;44.702;10.622;2023-04-25T08:19:50;14.20;99.90
23731;DHT22;12046;44.702;10.622;2023-04-25T08:22:16;14.30;99.90
23731;DHT22;12046;44.702;10.622;2023-04-25T08:24:43;14.30;99.90
23731;DHT22;12046;44.702;10.622;2023-04-25T08:27:09;14.40;99.90
23731;DHT22;12046;44.702;10.622;2023-04-25T08:29:35;14.50;99.90
23731;DHT22;12046;44.702;10.622;2023-04-25T08:32:01;14.50;99.90
23731;DHT22;12046;44.702;10.622;2023-04-25T08:34:26;14.50;99.90
23731;DHT22;12046;44.702;10.622;2023-04-25T08:36:53;14.60;99.90
23731;DHT22;12046;44.702;10.622;2023-04-25T08:39:18;14.70;99.90
23731;DHT22;12046;44.702;10.622;2023-04-25T08:41:44;14.80;99.90
23731;DHT22;12046;44.702;10.622;2023-04-25T08:44:11;15.00;99.90
23731;DHT22;12046;44.702;10.622;2023-04-25T08:46:40;15.20;99.90
23731;DHT22;12046;44.702;10.622;2023-04-25T08:49:07;15.30;99.90
23731;DHT22;12046;44.702;10.622;2023-04-25T08:51:36;15.40;99.90
23731;DHT22;12046;44.702;10.622;2023-04-25T08:54:11;15.60;99.90
23731;DHT22;12046;44.702;10.622;2023-04-25T08:56:43;15.70;99.90
23731;DHT22;12046;44.702;10.622;2023-04-25T08:59:11;15.80;99.90
23731;DHT22;12046;44.702;10.622;2023-04-25T09:01:37;15.80;99.90
23731;DHT22;12046;44.702;10.622;2023-04-25T09:04:02;15.90;99.90
23731;DHT22;12046;44.702;10.622;2023-04-25T09:06:32;16.00;99.90
23731;DHT22;12046;44.702;10.622;2023-04-25T09:09:06;16.10;99.90
23731;DHT22;12046;44.702;10.622;2023-04-25T09:11:33;16.20;99.90
23731;DHT22;12046;44.702;10.622;2023-04-25T09:14:20;16.30;99.90
23731;DHT22;12046;44.702;10.622;2023-04-25T09:19:41;16.50;99.90
23731;DHT22;12046;44.702;10.622;2023-04-25T09:22:09;16.60;99.90
23731;DHT22;12046;44.702;10.622;2023-04-25T09:27:07;16.90;99.90
23731;DHT22;12046;44.702;10.622;2023-04-25T09:29:38;17.10;99.90
23731;DHT22;12046;44.702;10.622;2023-04-25T09:32:20;17.30;99.90
23731;DHT22;12046;44.702;10.622;2023-04-25T09:34:48;17.50;99.90
23731;DHT22;12046;44.702;10.622;2023-04-25T09:39:50;17.70;99.90
23731;DHT22;12046;44.702;10.622;2023-04-25T09:42:16;17.80;99.60
23731;DHT22;12046;44.702;10.622;2023-04-25T09:44:43;17.80;99.60
23731;DHT22;12046;44.702;10.622;2023-04-25T09:47:11;17.90;99.50
23731;DHT22;12046;44.702;10.622;2023-04-25T09:49:39;18.00;99.30
23731;DHT22;12046;44.702;10.622;2023-04-25T09:52:06;18.10;99.20
23731;DHT22;12046;44.702;10.622;2023-04-25T09:54:32;18.10;99.00
23731;DHT22;12046;44.702;10.622;2023-04-25T09:57:11;18.10;98.80
23731;DHT22;12046;44.702;10.622;2023-04-25T09:59:39;17.90;98.70
23731;DHT22;12046;44.702;10.622;2023-04-25T10:02:08;17.70;98.70
23731;DHT22;12046;44.702;10.622;2023-04-25T10:04:35;17.60;98.50
23731;DHT22;12046;44.702;10.622;2023-04-25T10:07:04;17.50;98.50
23731;DHT22;12046;44.702;10.622;2023-04-25T10:09:32;17.40;98.40
23731;DHT22;12046;44.702;10.622;2023-04-25T10:12:01;17.40;98.30
23731;DHT22;12046;44.702;10.622;2023-04-25T10:14:30;17.40;98.40
23731;DHT22;12046;44.702;10.622;2023-04-25T10:16:58;17.50;98.70
23731;DHT22;12046;44.702;10.622;2023-04-25T10:19:25;17.50;98.80
23731;DHT22;12046;44.702;10.622;2023-04-25T10:24:46;17.50;98.40
23731;DHT22;12046;44.702;10.622;2023-04-25T10:27:12;17.50;98.20
23731;DHT22;12046;44.702;10.622;2023-04-25T10:29:39;17.50;97.90
23731;DHT22;12046;44.702;10.622;2023-04-25T10:32:08;17.50;97.90
23731;DHT22;12046;44.702;10.622;2023-04-25T10:34:42;17.60;98.00
23731;DHT22;12046;44.702;10.622;2023-04-25T10:37:09;17.70;97.90
23731;DHT22;12046;44.702;10.622;2023-04-25T10:39:41;17.70;97.70
23731;DHT22;12046;44.702;10.622;2023-04-25T10:42:07;17.70;97.40
23731;DHT22;12046;44.702;10.622;2023-04-25T10:44:34;17.70;97.40
23731;DHT22;12046;44.702;10.622;2023-04-25T10:47:01;17.70;97.50
23731;DHT22;12046;44.702;10.622;2023-04-25T10:49:30;17.70;97.40
23731;DHT22;12046;44.702;10.622;2023-04-25T10:55:02;17.80;97.70
23731;DHT22;12046;44.702;10.622;2023-04-25T11:00:20;18.10;97.40
23731;DHT22;12046;44.702;10.622;2023-04-25T11:02:58;18.30;97.20
23731;DHT22;12046;44.702;10.622;2023-04-25T11:05:31;18.40;97.00
23731;DHT22;12046;44.702;10.622;2023-04-25T11:07:58;18.60;96.60
23731;DHT22;12046;44.702;10.622;2023-04-25T11:10:29;18.50;96.20
23731;DHT22;12046;44.702;10.622;2023-04-25T11:12:56;18.60;96.10
23731;DHT22;12046;44.702;10.622;2023-04-25T11:15:22;18.50;96.20
23731;DHT22;12046;44.702;10.622;2023-04-25T11:17:47;18.60;96.00
23731;DHT22;12046;44.702;10.622;2023-04-25T11:20:13;18.60;95.90
23731;DHT22;12046;44.702;10.622;2023-04-25T11:22:41;18.60;95.80
23731;DHT22;12046;44.702;10.622;2023-04-25T11:25:11;18.70;95.80
23731;DHT22;12046;44.702;10.622;2023-04-25T11:30:15;18.90;95.40
23731;DHT22;12046;44.702;10.622;2023-04-25T11:32:42;19.00;95.30
23731;DHT22;12046;44.702;10.622;2023-04-25T11:35:09;19.10;95.00
23731;DHT22;12046;44.702;10.622;2023-04-25T11:37:37;19.20;94.80
23731;DHT22;12046;44.702;10.622;2023-04-25T11:40:04;19.30;94.70
23731;DHT22;12046;44.702;10.622;2023-04-25T11:42:32;19.40;94.60
23731;DHT22;12046;44.702;10.622;2023-04-25T11:44:58;19.40;94.40
23731;DHT22;12046;44.702;10.622;2023-04-25T11:47:29;19.40;94.30
23731;DHT22;12046;44.702;10.622;2023-04-25T11:49:55;19.30;94.30
23731;DHT22;12046;44.702;10.622;2023-04-25T11:52:21;19.30;94.40
23731;DHT22;12046;44.702;10.622;2023-04-25T11:54:46;19.40;94.40
23731;DHT22;12046;44.702;10.622;2023-04-25T11:57:14;19.50;94.50
23731;DHT22;12046;44.702;10.622;2023-04-25T11:59:39;19.60;94.30
23731;DHT22;12046;44.702;10.622;2023-04-25T12:02:06;19.60;94.50
23731;DHT22;12046;44.702;10.622;2023-04-25T12:04:32;19.70;94.60
23731;DHT22;12046;44.702;10.622;2023-04-25T12:06:58;19.80;94.50
23731;DHT22;12046;44.702;10.622;2023-04-25T12:09:33;20.00;94.30
23731;DHT22;12046;44.702;10.622;2023-04-25T12:11:59;20.10;93.90
23731;DHT22;12046;44.702;10.622;2023-04-25T12:14:33;20.20;93.70
23731;DHT22;12046;44.702;10.622;2023-04-25T12:17:00;20.10;93.50
23731;DHT22;12046;44.702;10.622;2023-04-25T12:19:31;20.20;93.60
23731;DHT22;12046;44.702;10.622;2023-04-25T12:21:59;20.10;93.30
23731;DHT22;12046;44.702;10.622;2023-04-25T12:24:26;20.20;93.20
23731;DHT22;12046;44.702;10.622;2023-04-25T12:27:04;20.20;93.30
23731;DHT22;12046;44.702;10.622;2023-04-25T12:29:34;20.20;93.20
23731;DHT22;12046;44.702;10.622;2023-04-25T12:31:59;20.20;93.00
23731;DHT22;12046;44.702;10.622;2023-04-25T12:34:27;20.20;92.80
23731;DHT22;12046;44.702;10.622;2023-04-25T12:36:53;20.10;92.80
23731;DHT22;12046;44.702;10.622;2023-04-25T12:41:51;20.00;93.00
23731;DHT22;12046;44.702;10.622;2023-04-25T12:44:20;20.10;93.20
23731;DHT22;12046;44.702;10.622;2023-04-25T12:46:49;20.10;92.80
23731;DHT22;12046;44.702;10.622;2023-04-25T12:49:15;20.10;92.60
23731;DHT22;12046;44.702;10.622;2023-04-25T12:51:41;20.10;92.40
23731;DHT22;12046;44.702;10.622;2023-04-25T12:54:07;20.00;92.20
23731;DHT22;12046;44.702;10.622;2023-04-25T12:56:34;20.00;92.20
23731;DHT22;12046;44.702;10.622;2023-04-25T12:59:01;20.00;92.20
23731;DHT22;12046;44.702;10.622;2023-04-25T13:01:28;20.00;92.20
23731;DHT22;12046;44.702;10.622;2023-04-25T13:03:54;20.10;92.40
23731;DHT22;12046;44.702;10.622;2023-04-25T13:06:22;20.20;92.30
23731;DHT22;12046;44.702;10.622;2023-04-25T13:08:48;20.20;92.10
23731;DHT22;12046;44.702;10.622;2023-04-25T13:11:14;20.20;91.90
23731;DHT22;12046;44.702;10.622;2023-04-25T13:13:43;20.20;92.10
23731;DHT22;12046;44.702;10.622;2023-04-25T13:16:09;20.20;92.10
23731;DHT22;12046;44.702;10.622;2023-04-25T13:18:35;20.20;92.20
23731;DHT22;12046;44.702;10.622;2023-04-25T13:21:01;20.20;92.00
23731;DHT22;12046;44.702;10.622;2023-04-25T13:23:28;20.20;92.00
23731;DHT22;12046;44.702;10.622;2023-04-25T13:25:55;20.20;92.20
23731;DHT22;12046;44.702;10.622;2023-04-25T13:28:24;20.10;92.30
23731;DHT22;12046;44.702;10.622;2023-04-25T13:30:50;20.20;92.40
23731;DHT22;12046;44.702;10.622;2023-04-25T13:33:17;20.20;92.30
23731;DHT22;12046;44.702;10.622;2023-04-25T13:35:43;20.20;92.30
23731;DHT22;12046;44.702;10.622;2023-04-25T13:38:12;20.30;92.30
23731;DHT22;12046;44.702;10.622;2023-04-25T13:40:38;20.30;92.30
23731;DHT22;12046;44.702;10.622;2023-04-25T13:43:04;20.30;92.10
23731;DHT22;12046;44.702;10.622;2023-04-25T13:45:32;20.10;92.00
23731;DHT22;12046;44.702;10.622;2023-04-25T13:47:57;20.00;92.00
23731;DHT22;12046;44.702;10.622;2023-04-25T13:50:23;19.90;92.20
23731;DHT22;12046;44.702;10.622;2023-04-25T13:52:49;19.70;92.20
23731;DHT22;12046;44.702;10.622;2023-04-25T13:55:15;19.70;92.40
23731;DHT22;12046;44.702;10.622;2023-04-25T13:57:41;19.70;92.40
23731;DHT22;12046;44.702;10.622;2023-04-25T14:00:07;19.80;92.50
23731;DHT22;12046;44.702;10.622;2023-04-25T14:02:38;19.90;92.20
23731;DHT22;12046;44.702;10.622;2023-04-25T14:05:04;19.90;92.10
23731;DHT22;12046;44.702;10.622;2023-04-25T14:07:30;19.90;92.00
23731;DHT22;12046;44.702;10.622;2023-04-25T14:09:57;20.00;92.10
23731;DHT22;12046;44.702;10.622;2023-04-25T14:12:23;20.00;92.10
23731;DHT22;12046;44.702;10.622;2023-04-25T14:14:49;19.90;92.10
23731;DHT22;12046;44.702;10.622;2023-04-25T14:17:15;19.90;92.10
23731;DHT22;12046;44.702;10.622;2023-04-25T14:19:41;19.80;92.30
23731;DHT22;12046;44.702;10.622;2023-04-25T14:22:11;19.80;92.50
23731;DHT22;12046;44.702;10.622;2023-04-25T14:24:36;19.80;92.70
23731;DHT22;12046;44.702;10.622;2023-04-25T14:27:02;19.90;93.00
23731;DHT22;12046;44.702;10.622;2023-04-25T14:29:28;20.00;92.80
23731;DHT22;12046;44.702;10.622;2023-04-25T14:31:54;20.00;92.60
23731;DHT22;12046;44.702;10.622;2023-04-25T14:34:21;20.00;92.50
23731;DHT22;12046;44.702;10.622;2023-04-25T14:36:47;19.90;92.80
23731;DHT22;12046;44.702;10.622;2023-04-25T14:39:13;19.80;93.10
23731;DHT22;12046;44.702;10.622;2023-04-25T14:41:40;19.70;93.40
23731;DHT22;12046;44.702;10.622;2023-04-25T14:44:05;19.60;93.70
23731;DHT22;12046;44.702;10.622;2023-04-25T14:46:31;19.40;93.90
23731;DHT22;12046;44.702;10.622;2023-04-25T14:48:57;19.30;94.10
23731;DHT22;12046;44.702;10.622;2023-04-25T14:51:23;19.20;94.20
23731;DHT22;12046;44.702;10.622;2023-04-25T14:53:49;19.10;94.40
23731;DHT22;12046;44.702;10.622;2023-04-25T14:56:15;19.00;94.60
23731;DHT22;12046;44.702;10.622;2023-04-25T14:58:41;19.00;94.80
23731;DHT22;12046;44.702;10.622;2023-04-25T15:01:07;18.90;94.90
23731;DHT22;12046;44.702;10.622;2023-04-25T15:03:33;18.90;95.00
23731;DHT22;12046;44.702;10.622;2023-04-25T15:05:59;19.00;95.10
23731;DHT22;12046;44.702;10.622;2023-04-25T15:08:25;19.00;95.10
23731;DHT22;12046;44.702;10.622;2023-04-25T15:10:52;19.00;95.20
23731;DHT22;12046;44.702;10.622;2023-04-25T15:13:18;19.00;95.10
23731;DHT22;12046;44.702;10.622;2023-04-25T15:15:44;19.00;95.10
23731;DHT22;12046;44.702;10.622;2023-04-25T15:18:20;19.00;95.40
23731;DHT22;12046;44.702;10.622;2023-04-25T15:20:48;18.90;95.20
23731;DHT22;12046;44.702;10.622;2023-04-25T15:23:14;18.90;95.30
23731;DHT22;12046;44.702;10.622;2023-04-25T15:25:40;18.90;95.40
23731;DHT22;12046;44.702;10.622;2023-04-25T15:28:05;18.90;95.30
23731;DHT22;12046;44.702;10.622;2023-04-25T15:30:31;18.90;95.30
23731;DHT22;12046;44.702;10.622;2023-04-25T15:32:57;18.90;95.30
23731;DHT22;12046;44.702;10.622;2023-04-25T15:35:23;18.90;95.60
23731;DHT22;12046;44.702;10.622;2023-04-25T15:37:48;18.80;95.30